sensor_id;sensor_type;location;lat;lon;timestamp;temperature;humidity
41469;DHT22;27206;47.032;15.484;2023-07-28T00:00:48;16.40;99.90
41469;DHT22;27206;47.032;15.484;2023-07-28T00:03:13;16.40;99.90
41469;DHT22;27206;47.032;15.484;2023-07-28T00:05:39;16.40;99.90
41469;DHT22;27206;47.032;15.484;2023-07-28T00:08:04;16.30;99.90
41469;DHT22;27206;47.032;15.484;2023-07-28T00:10:30;16.20;99.90
41469;DHT22;27206;47.032;15.484;2023-07-28T00:12:56;16.10;99.90
41469;DHT22;27206;47.032;15.484;2023-07-28T00:15:22;16.10;99.90
41469;DHT22;27206;47.032;15.484;2023-07-28T00:17:47;16.20;99.90
41469;DHT22;27206;47.032;15.484;2023-07-28T00:20:13;16.20;99.90
41469;DHT22;27206;47.032;15.484;2023-07-28T00:22:39;16.20;99.90
41469;DHT22;27206;47.032;15.484;2023-07-28T00:25:04;16.20;99.90
41469;DHT22;27206;47.032;15.484;2023-07-28T00:27:30;16.20;99.90
41469;DHT22;27206;47.032;15.484;2023-07-28T00:29:56;16.20;99.90
41469;DHT22;27206;47.032;15.484;2023-07-28T00:32:21;16.10;99.90
41469;DHT22;27206;47.032;15.484;2023-07-28T00:34:47;16.10;99.90
41469;DHT22;27206;47.032;15.484;2023-07-28T00:37:13;16.10;99.90
41469;DHT22;27206;47.032;15.484;2023-07-28T00:39:38;16.10;99.90
41469;DHT22;27206;47.032;15.484;2023-07-28T00:42:04;16.10;99.90
41469;DHT22;27206;47.032;15.484;2023-07-28T00:44:30;16.10;99.90
41469;DHT22;27206;47.032;15.484;2023-07-28T00:46:56;16.20;99.90
41469;DHT22;27206;47.032;15.484;2023-07-28T00:49:21;16.10;99.90
41469;DHT22;27206;47.032;15.484;2023-07-28T00:51:48;16.20;99.90
41469;DHT22;27206;47.032;15.484;2023-07-28T00:54:14;16.10;99.90
41469;DHT22;27206;47.032;15.484;2023-07-28T00:56:40;16.00;99.90
41469;DHT22;27206;47.032;15.484;2023-07-28T00:59:06;16.00;99.90
41469;DHT22;27206;47.032;15.484;2023-07-28T01:01:31;16.00;99.90
41469;DHT22;27206;47.032;15.484;2023-07-28T01:03:57;16.00;99.90
41469;DHT22;27206;47.032;15.484;2023-07-28T01:06:34;16.10;99.90
41469;DHT22;27206;47.032;15.484;2023-07-28T01:09:03;16.10;99.90
41469;DHT22;27206;47.032;15.484;2023-07-28T01:11:30;16.00;99.90
41469;DHT22;27206;47.032;15.484;2023-07-28T01:13:55;16.10;99.90
41469;DHT22;27206;47.032;15.484;2023-07-28T01:16:21;16.00;99.90
41469;DHT22;27206;47.032;15.484;2023-07-28T01:18:47;16.00;99.90
41469;DHT22;27206;47.032;15.484;2023-07-28T01:21:26;15.90;99.90
41469;DHT22;27206;47.032;15.484;2023-07-28T01:24:08;15.90;99.90
41469;DHT22;27206;47.032;15.484;2023-07-28T01:26:38;15.90;99.90
41469;DHT22;27206;47.032;15.484;2023-07-28T01:29:05;16.00;99.90
41469;DHT22;27206;47.032;15.484;2023-07-28T01:31:31;15.90;99.90
41469;DHT22;27206;47.032;15.484;2023-07-28T01:33:57;15.90;99.90
41469;DHT22;27206;47.032;15.484;2023-07-28T01:36:22;15.90;99.90
41469;DHT22;27206;47.032;15.484;2023-07-28T01:38:48;15.90;99.90
41469;DHT22;27206;47.032;15.484;2023-07-28T01:41:14;15.80;99.90
41469;DHT22;27206;47.032;15.484;2023-07-28T01:43:40;15.80;99.90
41469;DHT22;27206;47.032;15.484;2023-07-28T01:46:07;15.80;99.90
41469;DHT22;27206;47.032;15.484;2023-07-28T01:48:33;15.80;99.90
41469;DHT22;27206;47.032;15.484;2023-07-28T01:50:59;15.80;99.90
41469;DHT22;27206;47.032;15.484;2023-07-28T01:53:24;15.80;99.90
41469;DHT22;27206;47.032;15.484;2023-07-28T01:55:50;15.70;99.90
41469;DHT22;27206;47.032;15.484;2023-07-28T01:58:15;15.70;99.90
41469;DHT22;27206;47.032;15.484;2023-07-28T02:00:41;15.50;99.90
41469;DHT22;27206;47.032;15.484;2023-07-28T02:03:06;15.50;99.90
41469;DHT22;27206;47.032;15.484;2023-07-28T02:05:32;15.60;99.90
41469;DHT22;27206;47.032;15.484;2023-07-28T02:07:58;15.60;99.90
41469;DHT22;27206;47.032;15.484;2023-07-28T02:10:25;15.60;99.90
41469;DHT22;27206;47.032;15.484;2023-07-28T02:12:51;15.40;99.90
41469;DHT22;27206;47.032;15.484;2023-07-28T02:15:17;15.30;99.90
41469;DHT22;27206;47.032;15.484;2023-07-28T02:17:43;15.30;99.90
41469;DHT22;27206;47.032;15.484;2023-07-28T02:20:08;15.30;99.90
41469;DHT22;27206;47.032;15.484;2023-07-28T02:22:42;15.20;99.90
41469;DHT22;27206;47.032;15.484;2023-07-28T02:25:08;15.10;99.90
41469;DHT22;27206;47.032;15.484;2023-07-28T02:27:34;14.90;99.90
41469;DHT22;27206;47.032;15.484;2023-07-28T02:29:59;15.00;99.90
41469;DHT22;27206;47.032;15.484;2023-07-28T02:32:27;15.10;99.90
41469;DHT22;27206;47.032;15.484;2023-07-28T02:34:54;15.10;99.90
41469;DHT22;27206;47.032;15.484;2023-07-28T02:37:19;15.00;99.90
41469;DHT22;27206;47.032;15.484;2023-07-28T02:39:45;14.90;99.90
41469;DHT22;27206;47.032;15.484;2023-07-28T02:42:11;14.90;99.90
41469;DHT22;27206;47.032;15.484;2023-07-28T02:44:37;14.90;99.90
41469;DHT22;27206;47.032;15.484;2023-07-28T02:47:03;14.90;99.90
41469;DHT22;27206;47.032;15.484;2023-07-28T02:49:29;14.90;99.90
41469;DHT22;27206;47.032;15.484;2023-07-28T02:51:55;14.70;99.90
41469;DHT22;27206;47.032;15.484;2023-07-28T02:54:20;14.60;99.90
41469;DHT22;27206;47.032;15.484;2023-07-28T02:56:49;14.60;99.90
41469;DHT22;27206;47.032;15.484;2023-07-28T02:59:15;14.60;99.90
41469;DHT22;27206;47.032;15.484;2023-07-28T03:01:40;14.70;99.90
41469;DHT22;27206;47.032;15.484;2023-07-28T03:04:06;14.70;99.90
41469;DHT22;27206;47.032;15.484;2023-07-28T03:06:32;14.60;99.90
41469;DHT22;27206;47.032;15.484;2023-07-28T03:09:00;14.70;99.90
41469;DHT22;27206;47.032;15.484;2023-07-28T03:11:26;14.60;99.90
41469;DHT22;27206;47.032;15.484;2023-07-28T03:13:52;14.50;99.90
41469;DHT22;27206;47.032;15.484;2023-07-28T03:16:17;14.50;99.90
41469;DHT22;27206;47.032;15.484;2023-07-28T03:18:43;14.50;99.90
41469;DHT22;27206;47.032;15.484;2023-07-28T03:21:09;14.50;99.90
41469;DHT22;27206;47.032;15.484;2023-07-28T03:23:35;14.40;99.90
41469;DHT22;27206;47.032;15.484;2023-07-28T03:26:00;14.50;99.90
41469;DHT22;27206;47.032;15.484;2023-07-28T03:28:26;14.40;99.90
41469;DHT22;27206;47.032;15.484;2023-07-28T03:30:51;14.30;99.90
41469;DHT22;27206;47.032;15.484;2023-07-28T03:33:17;14.40;99.90
41469;DHT22;27206;47.032;15.484;2023-07-28T03:35:43;14.40;99.90
41469;DHT22;27206;47.032;15.484;2023-07-28T03:38:08;14.40;99.90
41469;DHT22;27206;47.032;15.484;2023-07-28T03:40:34;14.30;99.90
41469;DHT22;27206;47.032;15.484;2023-07-28T03:43:00;14.30;99.90
41469;DHT22;27206;47.032;15.484;2023-07-28T03:45:26;14.20;99.90
41469;DHT22;27206;47.032;15.484;2023-07-28T03:47:51;14.20;99.90
41469;DHT22;27206;47.032;15.484;2023-07-28T03:50:17;14.30;99.90
41469;DHT22;27206;47.032;15.484;2023-07-28T03:52:43;14.30;99.90
41469;DHT22;27206;47.032;15.484;2023-07-28T03:55:08;14.30;99.90
41469;DHT22;27206;47.032;15.484;2023-07-28T03:57:34;14.10;99.90
41469;DHT22;27206;47.032;15.484;2023-07-28T04:00:00;14.10;99.90
41469;DHT22;27206;47.032;15.484;2023-07-28T04:02:25;14.00;99.90
41469;DHT22;27206;47.032;15.484;2023-07-28T04:04:55;14.00;99.90
41469;DHT22;27206;47.032;15.484;2023-07-28T04:07:20;14.10;99.90
41469;DHT22;27206;47.032;15.484;2023-07-28T04:09:46;14.10;99.90
41469;DHT22;27206;47.032;15.484;2023-07-28T04:12:12;14.10;99.90
41469;DHT22;27206;47.032;15.484;2023-07-28T04:14:37;14.10;99.90
41469;DHT22;27206;47.032;15.484;2023-07-28T04:17:03;14.10;99.90
41469;DHT22;27206;47.032;15.484;2023-07-28T04:19:29;14.10;99.90
41469;DHT22;27206;47.032;15.484;2023-07-28T04:21:56;14.10;99.90
41469;DHT22;27206;47.032;15.484;2023-07-28T04:24:22;14.10;99.90
41469;DHT22;27206;47.032;15.484;2023-07-28T04:26:47;14.10;99.90
41469;DHT22;27206;47.032;15.484;2023-07-28T04:29:14;14.10;99.90
41469;DHT22;27206;47.032;15.484;2023-07-28T04:31:40;14.10;99.90
41469;DHT22;27206;47.032;15.484;2023-07-28T04:34:05;14.20;99.90
41469;DHT22;27206;47.032;15.484;2023-07-28T04:36:31;14.20;99.90
41469;DHT22;27206;47.032;15.484;2023-07-28T04:38:56;14.30;99.90
41469;DHT22;27206;47.032;15.484;2023-07-28T04:41:22;14.30;99.90
41469;DHT22;27206;47.032;15.484;2023-07-28T04:43:48;14.30;99.90
41469;DHT22;27206;47.032;15.484;2023-07-28T04:46:13;14.40;99.90
41469;DHT22;27206;47.032;15.484;2023-07-28T04:48:39;14.40;99.90
41469;DHT22;27206;47.032;15.484;2023-07-28T04:51:05;14.50;99.90
41469;DHT22;27206;47.032;15.484;2023-07-28T04:53:30;14.80;99.90
41469;DHT22;27206;47.032;15.484;2023-07-28T04:55:56;14.70;99.90
41469;DHT22;27206;47.032;15.484;2023-07-28T04:58:21;14.80;99.90
41469;DHT22;27206;47.032;15.484;2023-07-28T05:00:47;14.80;99.90
41469;DHT22;27206;47.032;15.484;2023-07-28T05:03:13;14.80;99.90
41469;DHT22;27206;47.032;15.484;2023-07-28T05:05:39;14.90;99.90
41469;DHT22;27206;47.032;15.484;2023-07-28T05:08:08;14.90;99.90
41469;DHT22;27206;47.032;15.484;2023-07-28T05:10:34;15.00;99.90
41469;DHT22;27206;47.032;15.484;2023-07-28T05:12:59;15.20;99.90
41469;DHT22;27206;47.032;15.484;2023-07-28T05:15:25;15.20;99.90
41469;DHT22;27206;47.032;15.484;2023-07-28T05:17:50;15.20;99.90
41469;DHT22;27206;47.032;15.484;2023-07-28T05:20:16;15.30;99.90
41469;DHT22;27206;47.032;15.484;2023-07-28T05:22:42;15.40;99.90
41469;DHT22;27206;47.032;15.484;2023-07-28T05:25:08;15.40;99.90
41469;DHT22;27206;47.032;15.484;2023-07-28T05:27:34;15.60;99.90
41469;DHT22;27206;47.032;15.484;2023-07-28T05:29:59;15.50;99.90
41469;DHT22;27206;47.032;15.484;2023-07-28T05:32:25;15.50;99.90
41469;DHT22;27206;47.032;15.484;2023-07-28T05:34:51;15.60;99.90
41469;DHT22;27206;47.032;15.484;2023-07-28T05:37:17;16.00;99.90
41469;DHT22;27206;47.032;15.484;2023-07-28T05:39:42;16.00;99.90
41469;DHT22;27206;47.032;15.484;2023-07-28T05:42:09;16.20;99.90
41469;DHT22;27206;47.032;15.484;2023-07-28T05:44:35;16.20;99.90
41469;DHT22;27206;47.032;15.484;2023-07-28T05:47:00;16.20;99.90
41469;DHT22;27206;47.032;15.484;2023-07-28T05:49:26;16.10;99.90
41469;DHT22;27206;47.032;15.484;2023-07-28T05:51:52;16.20;99.90
41469;DHT22;27206;47.032;15.484;2023-07-28T05:54:17;16.20;99.90
41469;DHT22;27206;47.032;15.484;2023-07-28T05:56:43;16.30;99.90
41469;DHT22;27206;47.032;15.484;2023-07-28T05:59:09;16.30;99.90
41469;DHT22;27206;47.032;15.484;2023-07-28T06:01:34;17.10;99.90
41469;DHT22;27206;47.032;15.484;2023-07-28T06:04:00;17.20;99.90
41469;DHT22;27206;47.032;15.484;2023-07-28T06:06:26;17.20;99.90
41469;DHT22;27206;47.032;15.484;2023-07-28T06:08:53;17.20;99.90
41469;DHT22;27206;47.032;15.484;2023-07-28T06:11:19;17.00;99.90
41469;DHT22;27206;47.032;15.484;2023-07-28T06:13:44;17.00;99.90
41469;DHT22;27206;47.032;15.484;2023-07-28T06:16:11;17.00;99.90
41469;DHT22;27206;47.032;15.484;2023-07-28T06:18:37;17.10;99.90
41469;DHT22;27206;47.032;15.484;2023-07-28T06:21:03;17.20;99.90
41469;DHT22;27206;47.032;15.484;2023-07-28T06:23:28;17.30;99.90
41469;DHT22;27206;47.032;15.484;2023-07-28T06:25:54;17.40;99.90
41469;DHT22;27206;47.032;15.484;2023-07-28T06:28:20;17.50;99.90
41469;DHT22;27206;47.032;15.484;2023-07-28T06:30:46;17.60;99.90
41469;DHT22;27206;47.032;15.484;2023-07-28T06:33:12;17.70;99.90
41469;DHT22;27206;47.032;15.484;2023-07-28T06:35:38;17.80;99.90
41469;DHT22;27206;47.032;15.484;2023-07-28T06:38:04;17.80;99.90
41469;DHT22;27206;47.032;15.484;2023-07-28T06:40:30;17.80;99.90
41469;DHT22;27206;47.032;15.484;2023-07-28T06:42:56;17.90;99.90
41469;DHT22;27206;47.032;15.484;2023-07-28T06:45:21;18.00;99.90
41469;DHT22;27206;47.032;15.484;2023-07-28T06:47:47;17.90;99.90
41469;DHT22;27206;47.032;15.484;2023-07-28T06:50:13;18.10;99.90
41469;DHT22;27206;47.032;15.484;2023-07-28T06:52:39;18.10;99.90
41469;DHT22;27206;47.032;15.484;2023-07-28T06:55:05;18.20;99.90
41469;DHT22;27206;47.032;15.484;2023-07-28T06:57:31;18.30;99.90
41469;DHT22;27206;47.032;15.484;2023-07-28T06:59:57;18.30;99.90
41469;DHT22;27206;47.032;15.484;2023-07-28T07:02:23;18.50;99.90
41469;DHT22;27206;47.032;15.484;2023-07-28T07:04:49;18.60;99.90
41469;DHT22;27206;47.032;15.484;2023-07-28T07:07:14;18.70;99.90
41469;DHT22;27206;47.032;15.484;2023-07-28T07:09:40;18.80;99.90
41469;DHT22;27206;47.032;15.484;2023-07-28T07:12:10;18.90;99.90
41469;DHT22;27206;47.032;15.484;2023-07-28T07:14:36;19.00;99.90
41469;DHT22;27206;47.032;15.484;2023-07-28T07:17:02;19.10;99.90
41469;DHT22;27206;47.032;15.484;2023-07-28T07:19:28;19.10;99.90
41469;DHT22;27206;47.032;15.484;2023-07-28T07:21:55;19.30;99.90
41469;DHT22;27206;47.032;15.484;2023-07-28T07:24:20;19.40;99.90
41469;DHT22;27206;47.032;15.484;2023-07-28T07:26:46;19.50;99.90
41469;DHT22;27206;47.032;15.484;2023-07-28T07:29:13;19.50;99.90
41469;DHT22;27206;47.032;15.484;2023-07-28T07:31:39;19.60;99.90
41469;DHT22;27206;47.032;15.484;2023-07-28T07:34:04;19.70;99.90
41469;DHT22;27206;47.032;15.484;2023-07-28T07:36:31;19.90;99.90
41469;DHT22;27206;47.032;15.484;2023-07-28T07:38:57;20.00;99.90
41469;DHT22;27206;47.032;15.484;2023-07-28T07:41:23;20.20;99.90
41469;DHT22;27206;47.032;15.484;2023-07-28T07:43:52;20.40;99.90
41469;DHT22;27206;47.032;15.484;2023-07-28T07:46:18;20.40;99.90
41469;DHT22;27206;47.032;15.484;2023-07-28T07:48:45;20.50;99.90
41469;DHT22;27206;47.032;15.484;2023-07-28T07:51:11;20.50;99.90
41469;DHT22;27206;47.032;15.484;2023-07-28T07:53:37;20.60;99.90
41469;DHT22;27206;47.032;15.484;2023-07-28T07:56:03;20.60;99.40
41469;DHT22;27206;47.032;15.484;2023-07-28T07:58:29;20.70;99.20
41469;DHT22;27206;47.032;15.484;2023-07-28T08:00:55;20.70;97.50
41469;DHT22;27206;47.032;15.484;2023-07-28T08:03:21;20.80;95.30
41469;DHT22;27206;47.032;15.484;2023-07-28T08:05:47;20.90;94.60
41469;DHT22;27206;47.032;15.484;2023-07-28T08:08:13;21.00;92.20
41469;DHT22;27206;47.032;15.484;2023-07-28T08:10:42;21.10;86.70
41469;DHT22;27206;47.032;15.484;2023-07-28T08:13:08;21.40;84.30
41469;DHT22;27206;47.032;15.484;2023-07-28T08:15:34;21.40;67.30
41469;DHT22;27206;47.032;15.484;2023-07-28T08:17:59;21.50;74.80
41469;DHT22;27206;47.032;15.484;2023-07-28T08:20:25;21.70;81.80
41469;DHT22;27206;47.032;15.484;2023-07-28T08:22:51;21.70;75.30
41469;DHT22;27206;47.032;15.484;2023-07-28T08:25:16;21.70;79.40
41469;DHT22;27206;47.032;15.484;2023-07-28T08:27:42;21.80;75.40
41469;DHT22;27206;47.032;15.484;2023-07-28T08:30:09;21.70;69.60
41469;DHT22;27206;47.032;15.484;2023-07-28T08:32:35;21.80;85.00
41469;DHT22;27206;47.032;15.484;2023-07-28T08:35:00;21.80;70.50
41469;DHT22;27206;47.032;15.484;2023-07-28T08:37:27;22.00;69.70
41469;DHT22;27206;47.032;15.484;2023-07-28T08:39:53;22.00;70.80
41469;DHT22;27206;47.032;15.484;2023-07-28T08:42:21;21.90;74.60
41469;DHT22;27206;47.032;15.484;2023-07-28T08:44:46;21.90;72.90
41469;DHT22;27206;47.032;15.484;2023-07-28T08:47:12;22.10;73.90
41469;DHT22;27206;47.032;15.484;2023-07-28T08:49:38;22.40;70.80
41469;DHT22;27206;47.032;15.484;2023-07-28T08:52:04;22.70;65.40
41469;DHT22;27206;47.032;15.484;2023-07-28T08:54:30;22.70;49.80
41469;DHT22;27206;47.032;15.484;2023-07-28T08:56:59;22.80;65.20
41469;DHT22;27206;47.032;15.484;2023-07-28T08:59:26;22.90;65.80
41469;DHT22;27206;47.032;15.484;2023-07-28T09:01:53;23.00;66.70
41469;DHT22;27206;47.032;15.484;2023-07-28T09:04:21;23.10;55.20
41469;DHT22;27206;47.032;15.484;2023-07-28T09:06:47;23.30;52.70
41469;DHT22;27206;47.032;15.484;2023-07-28T09:09:14;23.50;55.60
41469;DHT22;27206;47.032;15.484;2023-07-28T09:11:50;23.60;48.30
41469;DHT22;27206;47.032;15.484;2023-07-28T09:14:18;23.70;42.50
41469;DHT22;27206;47.032;15.484;2023-07-28T09:16:45;23.90;50.30
41469;DHT22;27206;47.032;15.484;2023-07-28T09:19:11;24.30;60.70
41469;DHT22;27206;47.032;15.484;2023-07-28T09:21:42;24.70;49.80
41469;DHT22;27206;47.032;15.484;2023-07-28T09:24:12;24.80;31.70
41469;DHT22;27206;47.032;15.484;2023-07-28T09:26:44;24.90;30.50
41469;DHT22;27206;47.032;15.484;2023-07-28T09:29:17;25.20;32.40
41469;DHT22;27206;47.032;15.484;2023-07-28T09:31:44;25.30;37.70
41469;DHT22;27206;47.032;15.484;2023-07-28T09:34:11;25.50;44.60
41469;DHT22;27206;47.032;15.484;2023-07-28T09:36:37;25.80;37.80
41469;DHT22;27206;47.032;15.484;2023-07-28T09:39:07;25.90;18.10
41469;DHT22;27206;47.032;15.484;2023-07-28T09:41:38;26.10;32.10
41469;DHT22;27206;47.032;15.484;2023-07-28T09:44:05;26.20;22.60
41469;DHT22;27206;47.032;15.484;2023-07-28T09:46:33;26.00;7.20
41469;DHT22;27206;47.032;15.484;2023-07-28T09:49:05;26.20;2.50
41469;DHT22;27206;47.032;15.484;2023-07-28T09:51:34;26.30;17.30
41469;DHT22;27206;47.032;15.484;2023-07-28T09:54:05;26.50;20.80
41469;DHT22;27206;47.032;15.484;2023-07-28T09:56:34;26.40;19.20
41469;DHT22;27206;47.032;15.484;2023-07-28T09:59:04;26.20;14.60
41469;DHT22;27206;47.032;15.484;2023-07-28T10:01:32;26.30;18.70
41469;DHT22;27206;47.032;15.484;2023-07-28T10:03:58;26.20;2.10
41469;DHT22;27206;47.032;15.484;2023-07-28T10:06:24;26.30;28.20
41469;DHT22;27206;47.032;15.484;2023-07-28T10:08:51;26.60;23.60
41469;DHT22;27206;47.032;15.484;2023-07-28T10:11:17;26.80;27.40
41469;DHT22;27206;47.032;15.484;2023-07-28T10:13:43;26.90;25.80
41469;DHT22;27206;47.032;15.484;2023-07-28T10:16:10;26.60;18.60
41469;DHT22;27206;47.032;15.484;2023-07-28T10:18:36;26.70;16.60
41469;DHT22;27206;47.032;15.484;2023-07-28T10:21:07;26.60;8.80
41469;DHT22;27206;47.032;15.484;2023-07-28T10:23:34;26.80;20.80
41469;DHT22;27206;47.032;15.484;2023-07-28T10:26:03;27.40;24.80
41469;DHT22;27206;47.032;15.484;2023-07-28T10:28:38;27.40;12.30
41469;DHT22;27206;47.032;15.484;2023-07-28T10:31:07;27.60;15.30
41469;DHT22;27206;47.032;15.484;2023-07-28T10:33:39;27.30;8.90
41469;DHT22;27206;47.032;15.484;2023-07-28T10:38:59;27.50;8.70
41469;DHT22;27206;47.032;15.484;2023-07-28T10:41:24;27.90;27.00
41469;DHT22;27206;47.032;15.484;2023-07-28T10:43:51;28.20;19.40
41469;DHT22;27206;47.032;15.484;2023-07-28T10:46:20;28.20;1.00
41469;DHT22;27206;47.032;15.484;2023-07-28T10:48:48;28.40;24.50
41469;DHT22;27206;47.032;15.484;2023-07-28T10:51:25;28.80;22.30
41469;DHT22;27206;47.032;15.484;2023-07-28T10:53:57;28.90;1.00
41469;DHT22;27206;47.032;15.484;2023-07-28T10:56:26;28.80;1.00
41469;DHT22;27206;47.032;15.484;2023-07-28T10:58:59;28.90;1.00
41469;DHT22;27206;47.032;15.484;2023-07-28T11:01:35;29.00;1.00
41469;DHT22;27206;47.032;15.484;2023-07-28T11:04:15;29.00;1.00
41469;DHT22;27206;47.032;15.484;2023-07-28T11:06:45;29.20;1.00
41469;DHT22;27206;47.032;15.484;2023-07-28T11:09:12;29.40;1.00
41469;DHT22;27206;47.032;15.484;2023-07-28T11:11:40;29.20;1.00
41469;DHT22;27206;47.032;15.484;2023-07-28T11:14:07;29.30;1.00
41469;DHT22;27206;47.032;15.484;2023-07-28T11:16:38;29.60;1.00
41469;DHT22;27206;47.032;15.484;2023-07-28T11:19:11;29.80;1.00
41469;DHT22;27206;47.032;15.484;2023-07-28T11:21:37;29.60;1.00
41469;DHT22;27206;47.032;15.484;2023-07-28T11:24:04;29.20;1.00
41469;DHT22;27206;47.032;15.484;2023-07-28T11:26:30;28.90;1.00
41469;DHT22;27206;47.032;15.484;2023-07-28T11:28:56;28.70;1.00
41469;DHT22;27206;47.032;15.484;2023-07-28T11:31:25;29.00;1.00
41469;DHT22;27206;47.032;15.484;2023-07-28T11:33:52;29.70;1.00
41469;DHT22;27206;47.032;15.484;2023-07-28T11:36:25;30.10;1.00
41469;DHT22;27206;47.032;15.484;2023-07-28T11:38:52;29.70;1.00
41469;DHT22;27206;47.032;15.484;2023-07-28T11:41:20;29.60;1.00
41469;DHT22;27206;47.032;15.484;2023-07-28T11:43:48;29.20;1.00
41469;DHT22;27206;47.032;15.484;2023-07-28T11:46:39;29.40;1.00
41469;DHT22;27206;47.032;15.484;2023-07-28T11:49:14;29.70;1.00
41469;DHT22;27206;47.032;15.484;2023-07-28T11:51:46;30.10;1.00
41469;DHT22;27206;47.032;15.484;2023-07-28T11:54:14;30.40;1.00
41469;DHT22;27206;47.032;15.484;2023-07-28T11:56:42;30.60;1.00
41469;DHT22;27206;47.032;15.484;2023-07-28T11:59:08;30.10;1.00
41469;DHT22;27206;47.032;15.484;2023-07-28T12:01:34;30.30;1.00
41469;DHT22;27206;47.032;15.484;2023-07-28T12:04:19;30.50;1.00
41469;DHT22;27206;47.032;15.484;2023-07-28T12:07:08;30.40;1.00
41469;DHT22;27206;47.032;15.484;2023-07-28T12:12:27;30.60;1.00
41469;DHT22;27206;47.032;15.484;2023-07-28T12:14:55;30.60;1.00
41469;DHT22;27206;47.032;15.484;2023-07-28T12:17:23;30.40;1.00
41469;DHT22;27206;47.032;15.484;2023-07-28T12:20:08;30.60;1.00
41469;DHT22;27206;47.032;15.484;2023-07-28T12:22:44;30.50;1.00
41469;DHT22;27206;47.032;15.484;2023-07-28T12:25:10;30.50;1.00
41469;DHT22;27206;47.032;15.484;2023-07-28T12:27:36;30.70;1.00
41469;DHT22;27206;47.032;15.484;2023-07-28T12:30:03;30.60;1.00
41469;DHT22;27206;47.032;15.484;2023-07-28T12:32:29;30.60;1.00
41469;DHT22;27206;47.032;15.484;2023-07-28T12:34:54;30.90;1.00
41469;DHT22;27206;47.032;15.484;2023-07-28T12:37:20;30.90;1.00
41469;DHT22;27206;47.032;15.484;2023-07-28T12:39:47;31.20;1.00
41469;DHT22;27206;47.032;15.484;2023-07-28T12:42:13;31.20;1.00
41469;DHT22;27206;47.032;15.484;2023-07-28T12:44:41;31.20;1.00
41469;DHT22;27206;47.032;15.484;2023-07-28T12:47:07;31.50;1.00
41469;DHT22;27206;47.032;15.484;2023-07-28T12:49:33;31.60;1.00
41469;DHT22;27206;47.032;15.484;2023-07-28T12:52:01;31.40;1.00
41469;DHT22;27206;47.032;15.484;2023-07-28T12:54:27;31.40;1.00
41469;DHT22;27206;47.032;15.484;2023-07-28T12:56:55;31.70;1.00
41469;DHT22;27206;47.032;15.484;2023-07-28T12:59:21;31.90;1.00
41469;DHT22;27206;47.032;15.484;2023-07-28T13:01:47;31.70;1.00
41469;DHT22;27206;47.032;15.484;2023-07-28T13:04:12;31.70;1.00
41469;DHT22;27206;47.032;15.484;2023-07-28T13:06:41;32.00;1.00
41469;DHT22;27206;47.032;15.484;2023-07-28T13:09:07;32.00;1.00
41469;DHT22;27206;47.032;15.484;2023-07-28T13:11:35;31.80;1.00
41469;DHT22;27206;47.032;15.484;2023-07-28T13:14:02;31.90;1.00
41469;DHT22;27206;47.032;15.484;2023-07-28T13:16:27;31.90;1.00
41469;DHT22;27206;47.032;15.484;2023-07-28T13:18:55;32.00;1.00
41469;DHT22;27206;47.032;15.484;2023-07-28T13:21:22;31.90;1.00
41469;DHT22;27206;47.032;15.484;2023-07-28T13:23:47;32.40;1.00
41469;DHT22;27206;47.032;15.484;2023-07-28T13:26:14;32.40;1.00
41469;DHT22;27206;47.032;15.484;2023-07-28T13:28:39;32.60;1.00
41469;DHT22;27206;47.032;15.484;2023-07-28T13:31:08;32.40;1.00
41469;DHT22;27206;47.032;15.484;2023-07-28T13:33:34;32.30;1.00
41469;DHT22;27206;47.032;15.484;2023-07-28T13:35:59;32.40;1.00
41469;DHT22;27206;47.032;15.484;2023-07-28T13:38:29;32.40;1.00
41469;DHT22;27206;47.032;15.484;2023-07-28T13:40:54;32.50;1.00
41469;DHT22;27206;47.032;15.484;2023-07-28T13:43:20;32.40;1.00
41469;DHT22;27206;47.032;15.484;2023-07-28T13:45:45;31.80;1.00
41469;DHT22;27206;47.032;15.484;2023-07-28T13:48:11;31.90;1.00
41469;DHT22;27206;47.032;15.484;2023-07-28T13:50:37;32.20;1.00
41469;DHT22;27206;47.032;15.484;2023-07-28T13:53:02;32.30;1.00
41469;DHT22;27206;47.032;15.484;2023-07-28T13:55:28;32.60;1.00
41469;DHT22;27206;47.032;15.484;2023-07-28T13:57:54;32.90;1.00
41469;DHT22;27206;47.032;15.484;2023-07-28T14:00:20;32.60;1.00
41469;DHT22;27206;47.032;15.484;2023-07-28T14:02:45;32.90;1.00
41469;DHT22;27206;47.032;15.484;2023-07-28T14:05:11;33.20;1.00
41469;DHT22;27206;47.032;15.484;2023-07-28T14:07:37;32.70;1.00
41469;DHT22;27206;47.032;15.484;2023-07-28T14:10:03;33.10;1.00
41469;DHT22;27206;47.032;15.484;2023-07-28T14:12:29;32.60;1.00
41469;DHT22;27206;47.032;15.484;2023-07-28T14:14:54;32.00;1.00
41469;DHT22;27206;47.032;15.484;2023-07-28T14:17:20;31.20;1.00
41469;DHT22;27206;47.032;15.484;2023-07-28T14:19:45;30.80;1.00
41469;DHT22;27206;47.032;15.484;2023-07-28T14:22:12;31.20;1.00
41469;DHT22;27206;47.032;15.484;2023-07-28T14:24:37;31.50;1.00
41469;DHT22;27206;47.032;15.484;2023-07-28T14:27:04;31.30;1.00
41469;DHT22;27206;47.032;15.484;2023-07-28T14:29:30;30.70;1.00
41469;DHT22;27206;47.032;15.484;2023-07-28T14:31:55;30.60;1.00
41469;DHT22;27206;47.032;15.484;2023-07-28T14:34:21;30.50;1.00
41469;DHT22;27206;47.032;15.484;2023-07-28T14:36:47;30.50;1.00
41469;DHT22;27206;47.032;15.484;2023-07-28T14:39:12;31.20;1.00
41469;DHT22;27206;47.032;15.484;2023-07-28T14:41:38;31.80;1.00
41469;DHT22;27206;47.032;15.484;2023-07-28T14:44:04;32.10;1.00
41469;DHT22;27206;47.032;15.484;2023-07-28T14:46:29;32.20;1.00
41469;DHT22;27206;47.032;15.484;2023-07-28T14:48:55;32.50;1.00
41469;DHT22;27206;47.032;15.484;2023-07-28T14:51:21;32.20;1.00
41469;DHT22;27206;47.032;15.484;2023-07-28T14:53:47;32.40;1.00
41469;DHT22;27206;47.032;15.484;2023-07-28T14:56:14;32.40;1.00
41469;DHT22;27206;47.032;15.484;2023-07-28T14:58:40;32.50;1.00
41469;DHT22;27206;47.032;15.484;2023-07-28T15:01:07;32.70;1.00
41469;DHT22;27206;47.032;15.484;2023-07-28T15:03:33;32.40;1.00
41469;DHT22;27206;47.032;15.484;2023-07-28T15:06:00;32.20;1.00
41469;DHT22;27206;47.032;15.484;2023-07-28T15:08:26;32.20;1.00
41469;DHT22;27206;47.032;15.484;2023-07-28T15:10:52;32.10;1.00
41469;DHT22;27206;47.032;15.484;2023-07-28T15:13:18;32.00;1.00
41469;DHT22;27206;47.032;15.484;2023-07-28T15:15:44;32.00;1.00
41469;DHT22;27206;47.032;15.484;2023-07-28T15:18:10;32.10;1.00
41469;DHT22;27206;47.032;15.484;2023-07-28T15:20:36;32.00;1.00
41469;DHT22;27206;47.032;15.484;2023-07-28T15:23:02;32.00;1.00